Time;durP1;ratioP1;P1;durP2;ratioP2;P2;SDS_P1;SDS_P2;PMS_P1;PMS_P2;Temp;Humidity;BMP_temperature;BMP_pressure;BME280_temperature;BME280_humidity;BME280_pressure;Samples;Min_cycle;Max_cycle;Signal;HPM_P1;HPM_P2
2022/03/17 08:52:07;;;;;;;;;23.00;21.25;;;;;15.21;37.96;99986.84;6110733;22;1570528;-59
2022/03/17 08:54:35;;;;;;;;;23.75;22.00;;;;;15.19;37.66;100001.50;6130687;22;102115;-59
2022/03/17 08:57:03;;;;;;;;;21.75;21.25;;;;;15.18;37.58;99986.19;6134009;22;102183;-59
2022/03/17 08:59:34;;;;;;;;;22.75;20.00;;;;;15.19;37.94;99979.69;6131263;22;103984;-59
2022/03/17 09:02:03;;;;;;;;;22.50;21.00;;;;;15.17;37.92;99984.50;6080339;23;102011;-58
2022/03/17 09:04:30;;;;;;;;;17.25;15.25;;;;;15.18;37.82;99990.78;6094749;23;102460;-58
2022/03/17 09:06:59;;;;;;;;;22.50;21.00;;;;;15.19;37.53;99987.03;6095083;23;102180;-58
2022/03/17 09:09:31;;;;;;;;;26.75;23.00;;;;;15.19;37.56;99985.16;6091221;23;104020;-58
2022/03/17 09:11:58;;;;;;;;;19.25;17.50;;;;;15.21;37.77;99995.03;6093472;23;102570;-58
2022/03/17 09:14:25;;;;;;;;;21.75;19.75;;;;;15.21;37.48;99990.41;6094402;23;102321;-59
2022/03/17 09:16:53;;;;;;;;;19.50;18.00;;;;;15.22;37.75;100011.16;6094801;23;102568;-58
2022/03/17 09:19:20;;;;;;;;;22.00;18.25;;;;;15.21;37.95;100012.22;6094765;23;103985;-58
2022/03/17 09:21:47;;;;;;;;;20.25;18.00;;;;;15.21;37.79;100006.78;6096089;23;102270;-59
2022/03/17 09:24:14;;;;;;;;;20.25;17.00;;;;;15.22;37.51;100013.06;6096681;23;102650;-58
2022/03/17 09:26:41;;;;;;;;;18.25;17.75;;;;;15.23;37.98;100010.13;6101807;23;102174;-59
2022/03/17 09:29:08;;;;;;;;;20.50;19.25;;;;;15.22;37.57;100013.88;6095954;23;103978;-58
2022/03/17 09:31:35;;;;;;;;;22.75;18.75;;;;;15.23;37.37;100009.28;6095001;23;102114;-58
2022/03/17 09:34:04;;;;;;;;;22.75;18.50;;;;;15.24;37.47;100014.53;6094098;23;102649;-57
2022/03/17 09:36:31;;;;;;;;;22.50;17.25;;;;;15.25;38.01;100023.56;6072691;23;102460;-59
2022/03/17 09:41:43;;;;;;;;;19.00;16.75;;;;;15.25;37.96;100009.94;6097187;23;101924;-59
2022/03/17 09:44:10;;;;;;;;;21.50;15.00;;;;;15.25;37.91;100009.94;6071216;23;102141;-59
2022/03/17 09:46:41;;;;;;;;;23.00;19.25;;;;;15.26;37.31;100003.44;6098107;23;102122;-57
2022/03/17 09:49:09;;;;;;;;;17.25;15.75;;;;;15.25;37.52;99999.03;6096188;23;103998;-58
2022/03/17 09:51:36;;;;;;;;;20.50;18.50;;;;;15.27;37.67;100010.56;6071630;23;102132;-58
2022/03/17 09:54:03;;;;;;;;;20.75;15.50;;;;;15.27;37.62;100016.00;6097742;23;102254;-59
2022/03/17 09:56:30;;;;;;;;;15.50;15.25;;;;;15.28;37.44;100004.06;6099713;23;102240;-59
2022/03/17 09:58:58;;;;;;;;;21.75;17.75;;;;;15.29;37.29;100019.41;6097452;22;104295;-59
2022/03/17 10:01:28;;;;;;;;;20.00;18.25;;;;;15.29;37.79;100008.50;6096824;22;102219;-59
2022/03/17 10:03:59;;;;;;;;;19.00;16.25;;;;;15.30;37.51;100004.75;6097024;23;102281;-58
2022/03/17 10:06:26;;;;;;;;;18.00;17.00;;;;;15.30;37.82;100021.09;6097792;22;102501;-58
2022/03/17 10:08:54;;;;;;;;;18.50;16.50;;;;;15.31;37.73;100006.44;6100562;22;104041;-60
2022/03/17 10:11:32;;;;;;;;;16.75;16.50;;;;;15.32;37.88;100019.00;6097844;22;102315;-58
2022/03/17 10:14:05;;;;;;;;;16.50;13.75;;;;;15.33;37.78;100007.06;6090870;23;102431;-58
2022/03/17 10:16:33;;;;;;;;;14.75;14.25;;;;;15.33;37.53;100009.78;6097702;23;102228;-58
2022/03/17 10:19:05;;;;;;;;;16.50;14.75;;;;;15.33;37.19;100016.09;6094183;23;104138;-58
2022/03/17 10:21:32;;;;;;;;;16.25;12.75;;;;;15.34;37.36;100011.47;6097829;22;101943;-58
2022/03/17 10:24:06;;;;;;;;;18.75;17.50;;;;;15.35;37.45;100021.34;6096715;22;108948;-58
2022/03/17 10:26:46;;;;;;;;;20.00;16.00;;;;;15.36;37.36;100017.56;6094768;23;102429;-58
2022/03/17 10:29:15;;;;;;;;;16.25;15.25;;;;;15.35;37.75;100013.16;6094347;23;108947;-58
2022/03/17 10:31:49;;;;;;;;;18.00;15.50;;;;;15.35;37.65;100005.00;6094426;23;102311;-57
2022/03/17 10:34:17;;;;;;;;;20.50;16.00;;;;;15.37;37.44;100011.91;6088334;23;102266;-58
2022/03/17 10:36:48;;;;;;;;;20.75;17.75;;;;;15.37;37.53;100000.16;6099669;22;105806;-58
2022/03/17 10:39:15;;;;;;;;;15.50;15.00;;;;;15.37;37.64;100011.91;6092121;23;107966;-60
2022/03/17 10:41:44;;;;;;;;;20.50;16.50;;;;;15.37;37.21;100011.91;6099988;23;101989;-59
2022/03/17 10:44:12;;;;;;;;;16.25;15.00;;;;;15.40;37.30;100011.50;6094745;23;102667;-59
2022/03/17 10:47:01;;;;;;;;;17.75;15.25;;;;;15.42;37.79;100008.59;6096790;22;102235;-58
2022/03/17 10:49:29;;;;;;;;;16.00;14.75;;;;;15.42;37.62;100008.59;6089308;23;106850;-59
2022/03/17 10:51:56;;;;;;;;;14.50;13.75;;;;;15.44;37.74;100001.94;6090576;22;102089;-58
2022/03/17 10:54:23;;;;;;;;;16.00;16.00;;;;;15.44;37.66;100007.38;6093361;23;102104;-59
2022/03/17 11:09:23;;;;;;;;;14.00;13.50;;;;;15.48;37.80;99999.66;4918655;28;102517;-60
2022/03/17 11:11:50;;;;;;;;;20.50;14.50;;;;;15.52;37.43;99999.09;4843792;28;102844;-60
2022/03/17 11:14:18;;;;;;;;;16.00;15.50;;;;;15.56;37.51;99994.06;4787092;28;104094;-61
2022/03/17 11:16:50;;;;;;;;;16.00;15.75;;;;;15.59;37.65;100001.84;4923908;28;102442;-60
2022/03/17 11:19:17;;;;;;;;;14.75;13.25;;;;;15.61;37.38;99994.31;4907916;28;103772;-60
2022/03/17 11:21:46;;;;;;;;;21.00;16.50;;;;;15.62;37.38;99996.81;4980690;23;103776;-84
2022/03/17 11:24:20;;;;;;;;;17.25;16.00;;;;;15.66;37.59;99994.56;4945613;28;109092;-86
2022/03/17 11:26:47;;;;;;;;;15.75;15.00;;;;;15.67;37.17;99990.75;4927264;28;104654;-86
2022/03/17 11:29:18;;;;;;;;;16.00;15.00;;;;;15.72;37.16;99998.34;4926013;28;102612;-86
2022/03/17 11:32:00;;;;;;;;;15.50;14.00;;;;;15.72;37.19;99980.09;4928791;28;102216;-86
2022/03/17 11:34:47;;;;;;;;;13.75;13.00;;;;;15.76;37.26;99984.13;4922299;28;108368;-86
2022/03/17 11:37:24;;;;;;;;;17.50;16.00;;;;;15.78;37.15;99992.09;4936305;28;102559;-86
2022/03/17 11:40:00;;;;;;;;;16.75;14.25;;;;;15.79;37.24;99989.19;4922977;28;102114;-86
2022/03/17 11:42:43;;;;;;;;;15.00;14.25;;;;;15.83;37.47;99986.91;4925929;28;102608;-86
2022/03/17 11:45:13;;;;;;;;;14.50;14.25;;;;;15.84;37.22;99991.31;4920616;28;104102;-86
2022/03/17 11:47:44;;;;;;;;;14.00;12.00;;;;;15.84;37.14;99983.97;4926434;28;102591;-86
2022/03/17 11:50:36;;;;;;;;;12.25;12.25;;;;;15.86;37.48;99976.41;4920924;28;103435;-86
2022/03/17 11:53:05;;;;;;;;;14.75;13.50;;;;;15.87;36.93;99969.06;4927094;28;102432;-86
2022/03/17 11:55:41;;;;;;;;;17.75;17.00;;;;;15.89;37.17;99976.03;4924035;28;104144;-86
2022/03/17 11:58:37;;;;;;;;;18.00;14.25;;;;;15.91;36.81;99976.66;4923733;28;102580;-86
2022/03/17 12:01:11;;;;;;;;;13.75;13.75;;;;;15.92;37.57;99972.03;4940702;28;102428;-86
2022/03/17 12:03:44;;;;;;;;;15.00;13.25;;;;;15.94;37.05;99962.59;4909128;28;102225;-86
2022/03/17 12:06:19;;;;;;;;;13.75;12.75;;;;;15.98;37.01;99972.09;4907909;28;104082;-86
2022/03/17 12:08:59;;;;;;;;;15.50;15.00;;;;;16.01;36.99;99966.22;4920257;28;102430;-86
2022/03/17 12:11:32;;;;;;;;;14.50;13.25;;;;;16.04;36.90;99956.78;4909828;28;102467;-86
2022/03/17 12:14:14;;;;;;;;;15.50;14.00;;;;;16.06;36.47;99958.28;4912270;28;103138;-86
2022/03/17 12:16:42;;;;;;;;;12.25;11.75;;;;;16.07;36.79;99954.47;4911276;28;104367;-86
2022/03/17 12:19:09;;;;;;;;;3.25;2.50;;;;;16.11;37.08;99959.56;4896107;28;102649;-86
2022/03/17 12:22:01;;;;;;;;;15.00;14.25;;;;;16.16;36.91;99967.97;4896801;28;102849;-86
2022/03/17 12:24:53;;;;;;;;;13.25;11.75;;;;;16.17;36.82;99947.78;4900887;28;102143;-86
2022/03/17 12:27:30;;;;;;;;;12.50;12.00;;;;;16.18;37.01;99955.78;4900988;28;108607;-86
2022/03/17 12:30:14;;;;;;;;;14.00;11.25;;;;;16.20;36.96;99948.25;4898750;28;102282;-86
2022/03/17 12:32:49;;;;;;;;;12.50;12.00;;;;;16.22;37.11;99951.59;4920801;28;102622;-86
2022/03/17 12:35:16;;;;;;;;;13.50;12.00;;;;;16.26;36.94;99952.03;4906290;28;102530;-86
2022/03/17 12:37:43;;;;;;;;;12.75;12.75;;;;;16.28;36.58;99949.94;4898399;28;108805;-86
2022/03/17 12:40:20;;;;;;;;;14.75;13.50;;;;;16.29;36.87;99946.19;4906907;28;102526;-86
2022/03/17 12:42:50;;;;;;;;;13.00;12.00;;;;;16.31;37.05;99957.72;4924436;28;102334;-86
2022/03/17 12:45:21;;;;;;;;;12.25;11.25;;;;;16.34;36.48;99951.88;4907049;28;103309;-86
2022/03/17 12:47:52;;;;;;;;;13.75;11.75;;;;;16.35;36.50;99950.81;4919573;28;104046;-84
2022/03/17 12:50:20;;;;;;;;;12.00;10.00;;;;;16.37;37.03;99946.00;4921418;28;102697;-86
2022/03/17 12:52:49;;;;;;;;;11.25;9.00;;;;;16.38;37.21;99950.41;4896742;28;102539;-85
2022/03/17 12:55:19;;;;;;;;;11.75;11.00;;;;;16.40;36.43;99953.75;4904659;28;102490;-86
2022/03/17 12:57:47;;;;;;;;;12.75;11.25;;;;;16.41;37.27;99958.19;4898490;28;108867;-86
2022/03/17 13:00:15;;;;;;;;;11.25;10.25;;;;;16.43;36.62;99959.69;4900936;28;102750;-86
2022/03/17 13:02:54;;;;;;;;;11.00;11.00;;;;;16.44;36.95;99963.22;4922634;28;102487;-86
2022/03/17 13:08:11;;;;;;;;;9.25;9.00;;;;;16.44;36.70;99952.28;4916844;28;103988;-86
2022/03/17 13:16:13;;;;;;;;;11.00;10.75;;;;;16.41;36.86;99964.47;4907036;28;102372;-86
2022/03/17 13:18:47;;;;;;;;;11.25;11.00;;;;;16.41;36.45;99950.84;4900789;28;102773;-85
2022/03/17 13:21:19;;;;;;;;;12.25;9.75;;;;;16.41;36.69;99950.84;4909955;28;102216;-85
2022/03/17 13:23:46;;;;;;;;;11.00;9.50;;;;;16.41;36.35;99950.00;4901441;28;102593;-86
2022/03/17 13:26:25;;;;;;;;;13.00;11.50;;;;;16.40;36.92;99943.69;4924484;28;102620;-86
2022/03/17 13:29:03;;;;;;;;;11.00;10.50;;;;;16.39;36.64;99943.91;4919435;28;104220;-86
2022/03/17 13:31:36;;;;;;;;;10.50;8.75;;;;;16.38;37.23;99951.25;4898619;28;102950;-86
2022/03/17 13:34:04;;;;;;;;;12.25;9.25;;;;;16.38;36.85;99934.88;4895775;28;102316;-87
2022/03/17 13:36:53;;;;;;;;;11.25;10.50;;;;;16.36;37.21;99936.97;4901908;28;102504;-86
2022/03/17 13:39:29;;;;;;;;;11.00;9.00;;;;;16.35;36.48;99926.22;4899989;28;108932;-85
2022/03/17 13:42:05;;;;;;;;;11.00;10.00;;;;;16.34;36.62;99935.50;4901660;28;102602;-86
2022/03/17 13:44:54;;;;;;;;;10.75;10.25;;;;;16.34;36.88;99932.75;4915323;28;102201;-86
2022/03/17 13:47:41;;;;;;;;;9.75;8.25;;;;;16.33;37.21;99933.81;4900228;28;103141;-86
2022/03/17 13:50:21;;;;;;;;;11.00;9.50;;;;;16.32;36.67;99945.75;4901554;28;104232;-86
2022/03/17 13:53:29;;;;;;;;;10.00;9.00;;;;;16.32;37.15;99945.75;4898732;28;102399;-83
2022/03/17 13:55:57;;;;;;;;;10.50;10.50;;;;;16.31;36.83;99944.91;4892326;28;103375;-86
2022/03/17 13:58:29;;;;;;;;;11.50;10.25;;;;;16.31;36.91;99944.06;4906621;28;102540;-86
2022/03/17 14:01:07;;;;;;;;;12.00;11.50;;;;;16.29;37.33;99946.19;4904386;28;103837;-86
2022/03/17 14:03:34;;;;;;;;;10.25;9.50;;;;;16.30;37.00;99950.59;4923020;28;102600;-87
2022/03/17 14:06:06;;;;;;;;;11.25;10.75;;;;;16.29;36.63;99955.22;4893932;28;102541;-86
2022/03/17 14:08:35;;;;;;;;;9.00;8.75;;;;;16.29;36.91;99951.63;4920702;28;103591;-86
2022/03/17 14:11:03;;;;;;;;;10.25;7.00;;;;;16.29;37.24;99963.41;4899184;28;104042;-86
2022/03/17 14:13:31;;;;;;;;;9.75;9.25;;;;;16.28;36.61;99966.31;4904667;28;102301;-86
2022/03/17 14:15:58;;;;;;;;;9.75;8.75;;;;;16.27;37.18;99953.72;4904175;28;103259;-86
2022/03/17 14:18:26;;;;;;;;;10.50;10.50;;;;;16.25;36.93;99956.69;4891508;28;102615;-86
2022/03/17 14:20:58;;;;;;;;;13.00;11.25;;;;;16.25;37.16;99961.28;4905149;28;111372;-86
2022/03/17 14:26:12;;;;;;;;;9.25;8.25;;;;;16.20;37.21;99963.78;4911692;28;102503;-86
2022/03/17 14:28:39;;;;;;;;;10.25;8.25;;;;;16.18;37.16;99957.69;4908556;28;104011;-86
2022/03/17 14:31:06;;;;;;;;;8.25;8.00;;;;;16.14;36.78;99953.66;4918596;28;104018;-86
2022/03/17 14:33:36;;;;;;;;;8.75;8.75;;;;;16.13;37.10;99957.44;4920981;28;102814;-86
2022/03/17 14:36:05;;;;;;;;;9.50;7.50;;;;;16.10;37.41;99955.13;4920268;28;109304;-86
2022/03/17 14:38:34;;;;;;;;;8.75;8.00;;;;;16.08;37.16;99949.88;4908607;28;102366;-86
2022/03/17 14:41:01;;;;;;;;;10.50;9.75;;;;;16.07;37.53;99953.66;4893628;28;103873;-86
2022/03/17 14:43:29;;;;;;;;;9.25;8.00;;;;;16.04;37.25;99954.91;4900840;28;102498;-86
2022/03/17 14:45:56;;;;;;;;;9.25;9.25;;;;;16.04;37.28;99960.34;4894886;28;102214;-86
2022/03/17 14:48:23;;;;;;;;;9.50;8.50;;;;;16.02;36.89;99951.53;4895335;28;102804;-86
2022/03/17 14:50:54;;;;;;;;;8.75;8.75;;;;;16.00;37.16;99950.88;4897239;28;104292;-85
2022/03/17 14:53:21;;;;;;;;;7.75;7.50;;;;;16.00;37.47;99948.16;4905082;28;104037;-86
2022/03/17 14:55:48;;;;;;;;;8.00;7.75;;;;;15.97;37.41;99943.13;4895216;28;103775;-86
2022/03/17 14:58:15;;;;;;;;;9.00;9.00;;;;;15.96;37.25;99943.31;4904851;28;102787;-86
2022/03/17 15:00:42;;;;;;;;;11.00;9.25;;;;;15.95;37.66;99945.19;4901321;28;104071;-86
2022/03/17 15:03:10;;;;;;;;;9.00;8.00;;;;;15.94;37.53;99940.78;4899078;28;102626;-87
2022/03/17 15:05:38;;;;;;;;;8.75;7.75;;;;;15.94;37.13;99945.41;4903014;28;102696;-86
2022/03/17 15:08:05;;;;;;;;;8.50;7.75;;;;;15.91;37.54;99938.47;4902221;28;102165;-86
2022/03/17 15:10:34;;;;;;;;;10.50;9.00;;;;;15.90;37.54;99939.50;4896410;28;103855;-87
2022/03/17 15:13:02;;;;;;;;;9.50;8.75;;;;;15.89;37.35;99943.31;4905450;28;102687;-86
2022/03/17 15:15:29;;;;;;;;;8.50;7.50;;;;;15.86;37.55;99940.97;4897052;28;102982;-86
2022/03/17 15:17:56;;;;;;;;;9.75;9.75;;;;;15.86;37.52;99945.56;4897595;28;103949;-85
2022/03/17 15:20:23;;;;;;;;;9.25;8.50;;;;;15.86;37.16;99957.31;4901405;28;104367;-86
2022/03/17 15:22:50;;;;;;;;;9.75;8.75;;;;;15.85;37.59;99950.19;4904807;28;102633;-86
2022/03/17 15:25:21;;;;;;;;;9.00;7.00;;;;;15.84;37.55;99948.50;4902925;28;102859;-84
2022/03/17 15:30:35;;;;;;;;;8.00;8.00;;;;;15.84;37.29;99953.13;4901713;28;104094;-87
2022/03/17 15:33:02;;;;;;;;;8.00;6.75;;;;;15.79;37.46;99940.09;4904804;28;102360;-84
2022/03/17 15:35:29;;;;;;;;;8.75;7.25;;;;;15.84;37.38;99944.94;4899211;28;103808;-82
2022/03/17 15:37:56;;;;;;;;;12.00;11.00;;;;;15.89;37.58;99950.63;4900733;28;102119;-86
2022/03/17 15:40:31;;;;;;;;;13.50;12.50;;;;;15.90;37.84;99957.75;4901424;28;104138;-86
2022/03/17 15:42:59;;;;;;;;;47.25;39.25;;;;;15.92;39.92;99961.13;4897326;28;102627;-84
2022/03/17 15:45:27;;;;;;;;;70.00;55.00;;;;;15.96;41.37;99960.53;4911137;28;102612;-78
2022/03/17 15:47:54;;;;;;;;;82.33;68.00;;;;;16.01;41.93;99963.50;4910856;28;102432;-78
2022/03/17 15:50:23;;;;;;;;;87.67;81.00;;;;;16.08;41.61;99975.25;4909126;28;104531;-78
2022/03/17 15:52:50;;;;;;;;;102.50;90.00;;;;;16.08;41.39;99972.53;4914255;28;102726;-86
2022/03/17 15:55:17;;;;;;;;;102.50;93.25;;;;;16.07;41.36;99980.94;4908467;28;102620;-85
2022/03/17 15:57:44;;;;;;;;;105.50;93.75;;;;;16.04;41.29;99984.06;4911939;28;102424;-85
2022/03/17 16:00:11;;;;;;;;;105.25;97.50;;;;;16.01;41.01;99985.31;4903388;28;104115;-86
2022/03/17 16:02:38;;;;;;;;;109.25;95.25;;;;;16.01;40.67;99984.47;4903062;28;105750;-86
2022/03/17 16:05:09;;;;;;;;;107.75;99.00;;;;;15.98;40.66;99976.72;4898819;28;102395;-87
2022/03/17 16:07:36;;;;;;;;;111.50;99.50;;;;;15.97;40.35;99986.78;4903967;28;102582;-87
2022/03/17 16:15:34;;;;;;;;;105.25;96.50;;;;;15.94;40.25;99999.97;4912107;28;104712;-85
2022/03/17 16:18:01;;;;;;;;;116.25;104.00;;;;;15.92;40.15;99997.44;4907532;28;102694;-84
2022/03/17 16:20:29;;;;;;;;;106.25;94.50;;;;;15.91;40.64;99998.47;4897616;28;104084;-86
2022/03/17 16:22:58;;;;;;;;;108.00;98.25;;;;;15.90;40.32;100002.25;4896588;28;102596;-86
2022/03/17 16:25:26;;;;;;;;;110.25;98.75;;;;;15.88;40.25;99993.44;4902069;28;102841;-85
2022/03/17 16:27:54;;;;;;;;;99.00;92.00;;;;;15.88;40.67;100001.63;4897634;28;102717;-85
2022/03/17 16:30:21;;;;;;;;;103.00;93.00;;;;;15.87;40.28;99996.34;4898705;28;104111;-85
2022/03/17 16:32:48;;;;;;;;;100.25;93.75;;;;;15.85;39.79;99993.81;4911173;28;102412;-86
2022/03/17 16:35:15;;;;;;;;;105.50;89.50;;;;;15.84;40.40;99994.88;4906980;28;103904;-85
2022/03/17 16:37:43;;;;;;;;;110.00;94.00;;;;;15.84;39.90;100002.22;4906818;28;102466;-85
2022/03/17 16:40:14;;;;;;;;;98.75;89.00;;;;;15.83;40.10;99995.06;4907946;28;104167;-84
2022/03/17 16:42:41;;;;;;;;;96.50;85.00;;;;;15.84;40.27;99997.63;4909041;28;102490;-85
2022/03/17 16:45:09;;;;;;;;;93.00;85.25;;;;;15.84;39.99;100007.69;4903104;28;102270;-86
2022/03/17 16:47:36;;;;;;;;;92.25;87.00;;;;;15.84;40.03;100015.88;4909837;28;102573;-85
2022/03/17 16:50:04;;;;;;;;;99.00;86.67;;;;;15.84;39.78;100019.44;4903086;28;103996;-86
2022/03/17 16:52:35;;;;;;;;;103.25;91.75;;;;;15.81;40.01;100008.06;4905552;28;102968;-85
2022/03/17 16:55:03;;;;;;;;;87.50;82.00;;;;;15.79;39.99;100010.16;4899124;28;102211;-86
2022/03/17 16:57:30;;;;;;;;;91.00;84.00;;;;;15.79;39.87;100021.06;4902779;28;103538;-86
2022/03/17 16:59:57;;;;;;;;;93.50;85.50;;;;;15.78;39.41;100014.78;4898398;28;104072;-86
2022/03/17 17:02:24;;;;;;;;;97.50;87.75;;;;;15.74;39.67;100008.03;4909462;28;102402;-87
2022/03/17 17:04:54;;;;;;;;;86.00;82.67;;;;;15.74;40.01;100024.41;4909870;28;102177;-86
2022/03/17 17:07:27;;;;;;;;;90.00;81.33;;;;;15.70;39.61;100014.94;4911250;28;102729;-86
2022/03/17 17:09:54;;;;;;;;;93.00;82.00;;;;;15.73;39.68;100027.31;4901535;28;104088;-85
2022/03/17 17:12:22;;;;;;;;;93.00;82.33;;;;;15.73;39.88;100024.59;4907751;28;102824;-85
2022/03/17 17:14:49;;;;;;;;;87.00;79.00;;;;;15.70;39.73;100028.56;4907306;28;102737;-85
2022/03/17 17:17:16;;;;;;;;;84.33;77.67;;;;;15.71;39.81;100033.00;4906185;28;102605;-85
2022/03/17 17:19:43;;;;;;;;;85.33;78.00;;;;;15.72;39.03;100028.34;4905740;28;104309;-84
2022/03/17 17:22:10;;;;;;;;;83.33;76.33;;;;;15.72;39.58;100041.97;4904087;28;102743;-85
2022/03/17 17:32:55;;;;;;;;;81.33;73.33;;;;;15.66;39.59;100048.25;4901368;28;102611;-85
2022/03/17 17:35:22;;;;;;;;;81.00;73.67;;;;;15.66;39.21;100060.00;4903652;28;102356;-85
2022/03/17 17:37:49;;;;;;;;;78.33;68.00;;;;;15.65;39.40;100057.47;4908816;28;102437;-85
2022/03/17 17:40:16;;;;;;;;;80.00;70.00;;;;;15.62;39.40;100058.72;4910421;28;104053;-85
2022/03/17 17:42:43;;;;;;;;;80.00;69.67;;;;;15.62;39.22;100070.44;4899180;28;103892;-85
2022/03/17 17:45:13;;;;;;;;;81.33;71.33;;;;;15.61;39.23;100071.50;4899599;28;104086;-85
2022/03/17 17:47:41;;;;;;;;;79.00;67.00;;;;;15.64;39.55;100070.25;4909821;28;104377;-85
2022/03/17 17:50:12;;;;;;;;;79.67;66.67;;;;;15.62;39.58;100075.06;4893900;28;105886;-85
2022/03/17 17:52:43;;;;;;;;;76.67;64.00;;;;;15.63;39.42;100077.59;4902016;28;104067;-79
2022/03/17 17:55:13;;;;;;;;;77.00;63.67;;;;;15.69;40.02;100069.66;4896432;28;104364;-78
2022/03/17 17:57:40;;;;;;;;;72.67;57.00;;;;;15.78;43.81;100072.03;4901183;28;104848;-78
2022/03/17 18:00:09;;;;;;;;;69.00;54.67;;;;;15.90;44.48;100073.16;4892948;28;104103;-78
2022/03/17 18:02:36;;;;;;;;;63.75;50.00;;;;;16.00;44.62;100073.66;4902225;28;102441;-78
2022/03/17 18:05:04;;;;;;;;;69.33;55.67;;;;;16.12;44.55;100073.13;4902067;28;102660;-77
2022/03/17 18:07:31;;;;;;;;;66.50;53.75;;;;;16.21;43.70;100080.09;4905026;28;102638;-77
2022/03/17 18:09:59;;;;;;;;;59.50;48.75;;;;;16.31;44.30;100070.47;4904588;28;103864;-79
2022/03/17 18:12:25;;;;;;;;;65.50;52.25;;;;;16.37;45.38;100079.75;4887868;28;102442;-78
2022/03/17 18:14:53;;;;;;;;;67.25;53.00;;;;;16.45;44.65;100076.84;4903260;28;102546;-78
2022/03/17 18:17:21;;;;;;;;;63.75;52.00;;;;;16.49;43.86;100089.03;4904356;28;110047;-85
2022/03/17 18:19:50;;;;;;;;;65.00;53.00;;;;;16.45;43.96;100090.50;4897186;28;109041;-86
2022/03/17 18:22:19;;;;;;;;;66.50;51.75;;;;;16.42;44.03;100088.19;4902041;28;102285;-86
2022/03/17 18:24:47;;;;;;;;;66.75;54.00;;;;;16.36;43.54;100087.09;4898437;28;102535;-87
2022/03/17 18:27:15;;;;;;;;;68.00;53.67;;;;;16.33;43.08;100084.78;4925566;28;104224;-87
2022/03/17 18:29:43;;;;;;;;;67.67;52.67;;;;;16.31;42.73;100091.47;4918690;28;103044;-85
2022/03/17 18:32:10;;;;;;;;;66.50;51.75;;;;;16.28;43.11;100086.44;4860094;28;104510;-84
2022/03/17 18:34:38;;;;;;;;;68.67;53.67;;;;;16.25;43.19;100092.31;4905861;28;102304;-85
2022/03/17 18:37:05;;;;;;;;;65.50;52.00;;;;;16.24;43.02;100096.06;4902002;28;102757;-85
2022/03/17 18:39:32;;;;;;;;;65.75;51.25;;;;;16.23;42.63;100094.38;4903035;28;103200;-85
2022/03/17 18:41:59;;;;;;;;;64.50;51.50;;;;;16.21;42.49;100091.84;4707730;28;105203;-85
2022/03/17 18:44:26;;;;;;;;;64.75;52.00;;;;;16.20;42.75;100097.50;4838579;28;103662;-84
2022/03/17 18:46:54;;;;;;;;;67.33;52.67;;;;;16.19;42.20;100095.81;4909840;28;103858;-85
2022/03/17 18:49:21;;;;;;;;;64.50;52.00;;;;;16.17;42.06;100101.47;4903230;28;104027;-84
2022/03/17 18:51:48;;;;;;;;;59.25;48.25;;;;;16.18;42.31;100105.03;4901894;28;102457;-84
2022/03/17 18:54:24;;;;;;;;;64.75;51.50;;;;;16.16;41.78;100107.16;4903060;28;103083;-85
2022/03/17 18:56:52;;;;;;;;;60.00;49.00;;;;;16.14;41.85;100104.59;4899905;28;102712;-84
2022/03/17 18:59:19;;;;;;;;;51.25;40.50;;;;;16.13;41.87;100105.66;4902345;28;104067;-85
2022/03/17 19:01:48;;;;;;;;;59.25;48.50;;;;;16.12;41.35;100103.13;4905557;28;110012;-85
2022/03/17 19:04:15;;;;;;;;;63.25;49.75;;;;;16.11;41.96;100107.75;4902769;28;103120;-84
2022/03/17 19:06:42;;;;;;;;;60.25;48.75;;;;;16.11;41.41;100104.19;4904008;28;103488;-84
2022/03/17 19:09:11;;;;;;;;;64.25;49.25;;;;;16.10;41.18;100110.66;4898210;28;104449;-85
2022/03/17 19:11:38;;;;;;;;;62.50;49.50;;;;;16.07;41.65;100115.47;4909549;28;102772;-84
2022/03/17 19:14:05;;;;;;;;;59.00;48.00;;;;;16.06;41.30;100116.53;4901138;28;102682;-84
2022/03/17 19:16:32;;;;;;;;;56.25;47.00;;;;;16.04;41.37;100118.59;4902188;28;102360;-85
2022/03/17 19:18:59;;;;;;;;;63.00;47.50;;;;;16.03;41.45;100124.25;4901241;28;104219;-84
2022/03/17 19:21:26;;;;;;;;;61.25;48.25;;;;;16.03;41.08;100121.53;4912591;28;110487;-83
2022/03/17 19:23:53;;;;;;;;;61.00;47.75;;;;;16.00;41.06;100120.03;4906843;28;102790;-86
2022/03/17 19:26:21;;;;;;;;;63.25;50.25;;;;;16.02;41.03;100125.31;4908946;28;102834;-85
2022/03/17 19:28:48;;;;;;;;;59.25;46.00;;;;;16.01;40.95;100129.94;4907150;28;104191;-85
2022/03/17 19:31:15;;;;;;;;;57.75;47.25;;;;;15.98;41.13;100135.78;4902680;28;102586;-85
2022/03/17 19:33:42;;;;;;;;;56.75;45.00;;;;;15.98;41.13;100134.94;4906741;28;102344;-85
2022/03/17 19:36:12;;;;;;;;;52.75;41.75;;;;;15.98;41.01;100129.50;4902732;28;102424;-85
2022/03/17 19:38:39;;;;;;;;;58.50;47.00;;;;;15.98;40.70;100134.94;4901883;28;104026;-85
2022/03/17 19:41:09;;;;;;;;;56.50;45.25;;;;;15.98;40.11;100149.44;4904481;28;103400;-78
2022/03/17 19:43:37;;;;;;;;;56.25;45.00;;;;;16.01;40.83;100151.75;4905305;28;102714;-78
2022/03/17 19:46:04;;;;;;;;;62.50;46.50;;;;;16.03;41.01;100146.94;4907923;28;102214;-86
2022/03/17 19:48:31;;;;;;;;;57.25;46.75;;;;;16.06;40.96;100154.72;4900548;28;104238;-86
2022/03/17 19:50:58;;;;;;;;;58.25;45.00;;;;;16.04;40.95;100148.63;4905621;28;102570;-85
2022/03/17 19:53:28;;;;;;;;;56.00;46.25;;;;;16.04;41.93;100145.03;4887820;28;102594;-86
2022/03/17 19:55:58;;;;;;;;;59.75;47.75;;;;;16.03;42.56;100149.66;4905325;28;102348;-86
2022/03/17 19:58:25;;;;;;;;;63.50;49.00;;;;;16.02;41.94;100148.00;4905953;28;108669;-87
2022/03/17 20:00:54;;;;;;;;;58.75;47.25;;;;;16.00;42.08;100144.59;4905507;28;102783;-86
2022/03/17 20:03:41;;;;;;;;;60.00;47.25;;;;;16.03;42.19;100155.09;4894034;28;102608;-88
2022/03/17 20:06:09;;;;;;;;;56.25;46.75;;;;;16.03;41.87;100146.94;4901474;28;102629;-87
2022/03/17 20:08:36;;;;;;;;;61.50;48.50;;;;;16.03;41.45;100149.66;4896627;28;103938;-86
2022/03/17 20:13:49;;;;;;;;;63.50;48.75;;;;;16.01;41.89;100161.81;4903589;28;102533;-86
2022/03/17 20:16:18;;;;;;;;;58.50;47.25;;;;;16.01;41.23;100156.38;4891216;28;103069;-85
2022/03/17 20:18:47;;;;;;;;;61.75;48.00;;;;;16.00;41.22;100166.44;4905712;28;104078;-86
2022/03/17 20:21:14;;;;;;;;;61.50;48.75;;;;;15.97;41.13;100160.53;4907842;28;103221;-86
2022/03/17 20:23:42;;;;;;;;;63.00;48.75;;;;;15.99;41.14;100167.47;4904845;28;102644;-85
2022/03/17 20:26:09;;;;;;;;;60.00;48.75;;;;;15.98;40.97;100154.88;4898025;28;102668;-85
2022/03/17 20:28:42;;;;;;;;;58.25;47.00;;;;;15.99;41.05;100164.75;4902227;28;104357;-86
2022/03/17 20:31:14;;;;;;;;;57.25;46.50;;;;;15.98;40.91;100173.13;4897421;28;102861;-85
2022/03/17 20:33:42;;;;;;;;;57.00;46.75;;;;;15.99;41.05;100162.00;4905617;28;102554;-85
2022/03/17 20:36:09;;;;;;;;;55.25;45.75;;;;;15.97;40.79;100161.38;4921014;28;102427;-85
2022/03/17 20:38:36;;;;;;;;;55.25;44.50;;;;;15.95;40.73;100168.91;4888585;28;104047;-85
2022/03/17 20:41:04;;;;;;;;;57.00;47.25;;;;;15.96;40.52;100169.75;4900686;28;102510;-84
2022/03/17 20:43:32;;;;;;;;;54.25;44.50;;;;;15.92;40.12;100174.75;4886141;28;102421;-85
2022/03/17 20:45:59;;;;;;;;;52.25;43.00;;;;;15.90;40.79;100171.38;4902107;28;102740;-85
2022/03/17 20:48:26;;;;;;;;;54.00;45.00;;;;;15.89;40.36;100172.44;4908189;28;104160;-86
2022/03/17 20:50:54;;;;;;;;;54.50;44.00;;;;;15.87;40.25;100168.22;4892014;28;103475;-85
2022/03/17 20:53:21;;;;;;;;;57.25;44.25;;;;;15.88;40.46;100178.09;4894881;28;102331;-85
2022/03/17 20:55:48;;;;;;;;;55.00;43.75;;;;;15.86;40.69;100180.16;4895579;28;103923;-85